createdAt,value
2022-12-17T00:01:48.697Z,11.52
2022-12-17T00:04:33.493Z,11.27
2022-12-17T00:07:18.343Z,10.10
2022-12-17T00:10:03.189Z,10.73
2022-12-17T00:12:48.386Z,10.00
2022-12-17T00:15:33.618Z,9.65
2022-12-17T00:18:25.539Z,9.73
2022-12-17T00:21:17.434Z,10.15
2022-12-17T00:24:02.754Z,10.63
2022-12-17T00:26:47.618Z,10.25
2022-12-17T00:29:33.084Z,9.80
2022-12-17T00:32:18.513Z,10.68
2022-12-17T00:35:03.635Z,10.40
2022-12-17T00:37:48.350Z,10.43
2022-12-17T00:40:33.605Z,10.48
2022-12-17T00:43:25.468Z,10.55
2022-12-17T00:46:11.185Z,10.68
2022-12-17T00:48:56.564Z,11.20
2022-12-17T00:52:01.762Z,10.85
2022-12-17T00:54:46.958Z,10.10
2022-12-17T00:57:31.976Z,10.57
2022-12-17T01:00:17.034Z,10.60
2022-12-17T01:03:21.739Z,10.05
2022-12-17T01:06:06.765Z,8.73
2022-12-17T01:08:51.776Z,10.02
2022-12-17T01:11:36.805Z,9.82
2022-12-17T01:14:21.947Z,9.38
2022-12-17T01:17:06.934Z,10.30
2022-12-17T01:19:52.764Z,9.38
2022-12-17T01:22:41.560Z,9.48
2022-12-17T01:25:26.455Z,10.50
2022-12-17T01:28:11.638Z,9.63
2022-12-17T01:31:16.666Z,9.77
2022-12-17T01:34:01.938Z,8.93
2022-12-17T01:36:47.077Z,9.70
2022-12-17T01:39:32.180Z,9.48
2022-12-17T01:42:17.082Z,9.63
2022-12-17T01:45:08.592Z,9.88
2022-12-17T01:47:56.303Z,10.32
2022-12-17T01:50:42.881Z,10.63
2022-12-17T01:53:32.791Z,8.90
2022-12-17T01:56:18.250Z,10.38
2022-12-17T01:59:03.624Z,10.55
2022-12-17T02:01:48.921Z,9.43
2022-12-17T02:04:34.199Z,8.85
2022-12-17T02:07:38.252Z,8.77
2022-12-17T02:10:29.651Z,9.27
2022-12-17T02:13:18.001Z,8.40
2022-12-17T02:16:06.006Z,9.80
2022-12-17T02:19:11.688Z,9.10
2022-12-17T02:21:57.958Z,9.20
2022-12-17T02:24:47.271Z,8.02
2022-12-17T02:27:32.599Z,7.90
2022-12-17T02:30:19.727Z,8.68
2022-12-17T02:33:05.400Z,8.15
2022-12-17T02:35:51.836Z,8.35
2022-12-17T02:38:38.134Z,8.27
2022-12-17T02:41:24.597Z,8.00
2022-12-17T02:44:11.554Z,7.95
2022-12-17T02:46:57.655Z,8.25
2022-12-17T02:49:43.417Z,7.75
2022-12-17T02:52:34.575Z,7.50
2022-12-17T02:55:20.460Z,7.97
2022-12-17T02:58:06.345Z,7.82
2022-12-17T03:00:51.682Z,8.30
2022-12-17T03:03:37.317Z,8.70
2022-12-17T03:06:22.896Z,8.38
2022-12-17T03:09:07.780Z,10.43
2022-12-17T03:11:54.286Z,9.07
2022-12-17T03:14:39.188Z,8.77
2022-12-17T03:17:24.031Z,7.07
2022-12-17T03:20:09.079Z,7.30
2022-12-17T03:22:53.883Z,7.57
2022-12-17T03:25:38.819Z,8.27
2022-12-17T03:28:27.666Z,7.65
2022-12-17T03:31:12.845Z,8.35
2022-12-17T03:33:58.226Z,7.50
2022-12-17T03:36:43.163Z,8.30
2022-12-17T03:39:28.363Z,7.95
2022-12-17T03:42:13.338Z,7.75
2022-12-17T03:44:58.092Z,7.45
2022-12-17T03:47:43.174Z,8.13
2022-12-17T03:50:28.409Z,8.18
2022-12-17T03:53:13.278Z,8.13
2022-12-17T03:55:58.037Z,7.55
2022-12-17T03:58:43.027Z,6.82
2022-12-17T04:01:27.985Z,7.35
2022-12-17T04:04:13.320Z,7.50
2022-12-17T04:06:58.179Z,7.80
2022-12-17T04:09:43.033Z,8.75
2022-12-17T04:12:27.791Z,7.95
2022-12-17T04:15:13.034Z,9.00
2022-12-17T04:17:58.180Z,7.88
2022-12-17T04:20:42.951Z,8.00
2022-12-17T04:23:27.819Z,8.98
2022-12-17T04:26:12.735Z,8.35
2022-12-17T04:28:57.651Z,9.82
2022-12-17T04:31:42.822Z,9.55
2022-12-17T04:34:27.762Z,10.15
2022-12-17T04:37:12.519Z,10.48
2022-12-17T04:39:57.486Z,9.05
2022-12-17T04:42:42.252Z,10.13
2022-12-17T04:45:27.608Z,8.82
2022-12-17T04:48:22.739Z,9.85
2022-12-17T04:51:07.700Z,10.93
2022-12-17T04:53:52.992Z,10.95
2022-12-17T04:56:37.949Z,11.57
2022-12-17T04:59:23.456Z,11.15
2022-12-17T05:02:08.357Z,10.35
2022-12-17T05:04:53.303Z,10.88
2022-12-17T05:07:38.132Z,12.00
2022-12-17T05:10:23.350Z,12.75
2022-12-17T05:13:24.665Z,11.30
2022-12-17T05:16:14.042Z,11.80
2022-12-17T05:18:59.210Z,11.05
2022-12-17T05:21:48.510Z,10.32
2022-12-17T05:24:33.257Z,12.07
2022-12-17T05:27:18.177Z,11.02
2022-12-17T05:30:03.068Z,12.77
2022-12-17T05:32:47.841Z,11.73
2022-12-17T05:35:32.731Z,12.32
2022-12-17T05:38:25.963Z,11.55
2022-12-17T05:41:10.746Z,11.77
2022-12-17T05:43:56.008Z,11.73
2022-12-17T05:46:40.861Z,13.07
2022-12-17T05:49:26.151Z,13.73
2022-12-17T05:52:11.004Z,12.85
2022-12-17T05:54:55.984Z,13.50
2022-12-17T05:57:40.766Z,12.02
2022-12-17T06:00:25.973Z,13.23
2022-12-17T06:03:17.767Z,14.40
2022-12-17T06:06:03.191Z,12.35
2022-12-17T06:08:48.064Z,13.13
2022-12-17T06:11:32.997Z,13.43
2022-12-17T06:14:18.100Z,12.88
2022-12-17T06:17:02.989Z,12.68
2022-12-17T06:19:47.781Z,13.30
2022-12-17T06:22:32.619Z,10.98
2022-12-17T06:25:17.525Z,11.25
2022-12-17T06:28:02.349Z,11.70
2022-12-17T06:30:47.311Z,17.52
2022-12-17T06:33:32.151Z,16.95
2022-12-17T06:36:22.156Z,13.65
2022-12-17T06:39:08.125Z,12.63
2022-12-17T06:41:54.768Z,12.48
2022-12-17T06:44:47.073Z,13.87
2022-12-17T06:47:31.923Z,13.32
2022-12-17T06:50:16.869Z,13.80
2022-12-17T06:53:01.672Z,12.50
2022-12-17T06:55:46.830Z,13.90
2022-12-17T06:58:31.749Z,12.57
2022-12-17T07:01:16.791Z,11.05
2022-12-17T07:04:01.994Z,11.25
2022-12-17T07:06:46.882Z,10.13
2022-12-17T07:09:32.028Z,9.82
2022-12-17T07:12:17.296Z,10.90
2022-12-17T07:15:02.526Z,10.48
2022-12-17T07:17:47.264Z,9.13
2022-12-17T07:20:32.126Z,10.95
2022-12-17T07:23:16.917Z,9.27
2022-12-17T07:26:01.814Z,9.80
2022-12-17T07:28:46.607Z,9.02
2022-12-17T07:31:31.476Z,13.05
2022-12-17T07:34:16.649Z,11.90
2022-12-17T07:37:01.741Z,10.80
2022-12-17T07:39:46.949Z,10.30
2022-12-17T07:42:31.825Z,10.13
2022-12-17T07:45:16.985Z,10.13
2022-12-17T07:48:06.303Z,11.15
2022-12-17T07:50:51.172Z,10.95
2022-12-17T07:53:36.560Z,10.48
2022-12-17T07:56:21.543Z,9.40
2022-12-17T07:59:06.398Z,8.80
2022-12-17T08:01:51.520Z,9.15
2022-12-17T08:04:36.933Z,8.93
2022-12-17T08:07:21.808Z,18.38
2022-12-17T08:10:06.654Z,10.52
2022-12-17T08:12:51.619Z,11.30
2022-12-17T08:15:38.235Z,10.05
2022-12-17T08:18:26.699Z,9.23
2022-12-17T08:21:12.217Z,10.07
2022-12-17T08:23:57.008Z,10.73
2022-12-17T08:26:47.325Z,9.65
2022-12-17T08:29:33.021Z,10.70
2022-12-17T08:32:17.871Z,10.73
2022-12-17T08:35:02.883Z,10.52
2022-12-17T08:37:48.694Z,10.43
2022-12-17T08:40:33.780Z,11.70
2022-12-17T08:43:18.658Z,10.95
2022-12-17T08:46:07.185Z,10.35
2022-12-17T08:48:52.591Z,11.45
2022-12-17T08:51:41.971Z,13.52
2022-12-17T08:54:27.306Z,11.27
2022-12-17T08:57:12.326Z,11.63
2022-12-17T08:59:57.384Z,11.27
2022-12-17T09:02:42.985Z,10.50
2022-12-17T09:05:28.405Z,14.63
2022-12-17T09:08:17.535Z,13.35
2022-12-17T09:11:02.453Z,13.98
2022-12-17T09:13:47.550Z,14.20
2022-12-17T09:16:32.452Z,13.95
2022-12-17T09:19:17.699Z,13.68
2022-12-17T09:22:02.472Z,16.00
2022-12-17T09:24:47.405Z,14.48
2022-12-17T09:27:32.298Z,15.13
2022-12-17T09:30:17.199Z,14.60
2022-12-17T09:33:02.324Z,15.70
2022-12-17T09:35:47.228Z,13.65
2022-12-17T09:38:35.276Z,13.60
2022-12-17T09:41:45.620Z,14.75
2022-12-17T09:44:33.652Z,14.52
2022-12-17T09:47:25.168Z,23.42
2022-12-17T09:50:10.959Z,17.13
2022-12-17T09:52:57.886Z,14.85
2022-12-17T09:55:45.586Z,14.55
2022-12-17T09:58:39.624Z,14.20
2022-12-17T10:01:25.733Z,16.00
2022-12-17T10:04:10.866Z,15.65
2022-12-17T10:06:55.850Z,13.38
2022-12-17T10:09:41.942Z,14.00
2022-12-17T10:12:30.772Z,14.80
2022-12-17T10:15:15.959Z,15.40
2022-12-17T10:18:00.857Z,14.27
2022-12-17T10:21:01.295Z,16.23
2022-12-17T10:23:47.598Z,14.10
2022-12-17T10:26:36.841Z,16.58
2022-12-17T10:29:31.743Z,14.63
2022-12-17T10:32:17.528Z,14.25
2022-12-17T10:35:05.649Z,14.80
2022-12-17T10:37:52.732Z,16.15
2022-12-17T10:40:51.346Z,15.02
2022-12-17T10:43:50.086Z,16.65
2022-12-17T10:46:42.130Z,15.00
2022-12-17T10:49:31.461Z,14.55
2022-12-17T10:52:20.547Z,14.65
2022-12-17T10:55:15.758Z,15.48
2022-12-17T10:58:01.757Z,15.18
2022-12-17T11:00:51.333Z,14.52
2022-12-17T11:03:42.483Z,14.63
2022-12-17T11:06:27.528Z,14.55
2022-12-17T11:09:12.871Z,14.25
2022-12-17T11:11:58.450Z,15.52
2022-12-17T11:14:46.230Z,15.00
2022-12-17T11:17:34.738Z,15.93
2022-12-17T11:20:21.610Z,15.40
2022-12-17T11:23:09.014Z,15.43
2022-12-17T11:26:03.388Z,15.57
2022-12-17T11:29:05.443Z,16.08
2022-12-17T11:31:50.158Z,16.98
2022-12-17T11:34:41.076Z,17.63
2022-12-17T11:37:32.049Z,17.02
2022-12-17T11:40:38.693Z,16.67
2022-12-17T11:43:43.212Z,16.77
2022-12-17T11:46:36.064Z,17.67
2022-12-17T11:49:38.800Z,17.92
2022-12-17T11:52:42.653Z,16.30
2022-12-17T11:55:36.132Z,15.65
2022-12-17T11:58:34.534Z,17.17
2022-12-17T12:01:26.077Z,16.25
2022-12-17T12:04:30.066Z,15.52
2022-12-17T12:07:38.198Z,15.38
2022-12-17T12:10:26.882Z,16.15
2022-12-17T12:13:28.345Z,14.52
2022-12-17T12:16:44.135Z,15.52
2022-12-17T12:19:43.546Z,16.25
2022-12-17T12:22:37.488Z,15.07
2022-12-17T12:25:28.433Z,15.45
2022-12-17T12:28:23.023Z,14.88
2022-12-17T12:31:14.100Z,14.82
2022-12-17T12:34:20.263Z,15.00
2022-12-17T12:37:06.097Z,14.38
2022-12-17T12:40:00.678Z,13.20
2022-12-17T12:42:52.253Z,13.40
2022-12-17T12:45:48.046Z,14.38
2022-12-17T12:48:42.379Z,13.30
2022-12-17T12:51:33.980Z,13.68
2022-12-17T12:54:20.678Z,14.70
2022-12-17T12:57:05.683Z,13.60
2022-12-17T12:59:52.792Z,12.70
2022-12-17T13:02:40.774Z,13.23
2022-12-17T13:05:33.762Z,13.30
2022-12-17T13:08:18.659Z,12.88
2022-12-17T13:10:45.527Z,13.50
2022-12-17T13:13:11.867Z,12.20
2022-12-17T13:15:41.053Z,12.27
2022-12-17T13:18:40.845Z,10.70
2022-12-17T13:21:16.831Z,12.30
2022-12-17T13:23:43.591Z,11.43
2022-12-17T13:26:14.733Z,12.55
2022-12-17T13:28:41.629Z,12.40
2022-12-17T13:31:22.621Z,12.18
2022-12-17T13:34:01.356Z,13.05
2022-12-17T13:36:27.759Z,13.18
2022-12-17T13:39:02.857Z,14.15
2022-12-17T13:41:33.434Z,13.50
2022-12-17T13:44:02.249Z,13.20
2022-12-17T13:46:34.835Z,13.25
2022-12-17T13:49:02.474Z,13.93
2022-12-17T13:51:30.762Z,13.57
2022-12-17T13:53:58.528Z,13.40
2022-12-17T13:56:26.722Z,14.68
2022-12-17T13:58:54.362Z,14.07
2022-12-17T14:01:21.277Z,14.65
2022-12-17T14:04:08.214Z,14.38
2022-12-17T14:06:37.834Z,14.82
2022-12-17T14:09:05.259Z,14.73
2022-12-17T14:11:50.893Z,16.13
2022-12-17T14:14:26.623Z,15.50
2022-12-17T14:16:53.191Z,14.48
2022-12-17T14:19:19.593Z,15.45
2022-12-17T14:21:46.117Z,15.57
2022-12-17T14:24:13.691Z,14.98
2022-12-17T14:26:53.353Z,14.90
2022-12-17T14:29:28.048Z,15.32
2022-12-17T14:31:56.177Z,23.80
2022-12-17T14:34:22.995Z,21.67
2022-12-17T14:36:53.919Z,17.58
2022-12-17T14:39:23.865Z,16.88
2022-12-17T14:42:09.439Z,17.77
2022-12-17T14:44:38.226Z,16.88
2022-12-17T14:47:08.353Z,17.90
2022-12-17T14:49:34.816Z,19.45
2022-12-17T14:52:11.534Z,18.00
2022-12-17T14:54:44.198Z,18.17
2022-12-17T14:57:18.947Z,16.92
2022-12-17T14:59:45.295Z,17.40
2022-12-17T15:02:18.783Z,16.65
2022-12-17T15:04:45.254Z,17.92
2022-12-17T15:07:17.911Z,18.20
2022-12-17T15:09:44.864Z,17.73
2022-12-17T15:12:11.270Z,18.20
2022-12-17T15:14:37.667Z,18.42
2022-12-17T15:17:04.161Z,23.10
2022-12-17T15:19:30.555Z,16.85
2022-12-17T15:21:56.920Z,17.35
2022-12-17T15:24:23.269Z,18.50
2022-12-17T15:26:50.102Z,17.10
2022-12-17T15:29:16.658Z,17.63
2022-12-17T15:31:43.112Z,17.83
2022-12-17T15:34:10.921Z,17.50
2022-12-17T15:36:37.384Z,18.15
2022-12-17T15:39:06.140Z,17.77
2022-12-17T15:41:51.266Z,17.20
2022-12-17T15:44:17.683Z,17.33
2022-12-17T15:46:44.180Z,17.13
2022-12-17T15:49:10.670Z,16.70
2022-12-17T15:51:37.020Z,17.63
2022-12-17T15:54:03.490Z,18.10
2022-12-17T15:56:30.000Z,17.73
2022-12-17T15:58:57.429Z,18.05
2022-12-17T16:01:24.197Z,18.02
2022-12-17T16:03:50.704Z,18.85
2022-12-17T16:06:17.069Z,16.42
2022-12-17T16:08:43.488Z,17.55
2022-12-17T16:11:10.579Z,16.58
2022-12-17T16:13:37.867Z,18.25
2022-12-17T16:16:04.866Z,18.25
2022-12-17T16:18:31.558Z,17.48
2022-12-17T16:21:01.687Z,19.35
2022-12-17T16:23:28.061Z,18.40
2022-12-17T16:26:01.561Z,18.77
2022-12-17T16:28:28.677Z,18.80
2022-12-17T16:31:09.096Z,17.17
2022-12-17T16:33:36.821Z,18.20
2022-12-17T16:36:03.552Z,18.73
2022-12-17T16:38:30.136Z,18.73
2022-12-17T16:40:57.123Z,17.95
2022-12-17T16:43:23.960Z,18.42
2022-12-17T16:45:50.889Z,19.13
2022-12-17T16:48:18.023Z,19.20
2022-12-17T16:50:44.909Z,18.02
2022-12-17T16:53:11.737Z,18.25
2022-12-17T16:55:45.328Z,18.83
2022-12-17T16:58:12.063Z,18.25
2022-12-17T17:00:38.852Z,18.65
2022-12-17T17:03:05.726Z,19.15
2022-12-17T17:05:33.009Z,18.63
2022-12-17T17:07:59.493Z,19.25
2022-12-17T17:10:26.129Z,19.05
2022-12-17T17:12:53.027Z,19.05
2022-12-17T17:15:19.405Z,19.02
2022-12-17T17:17:54.408Z,19.02
2022-12-17T17:20:22.646Z,19.92
2022-12-17T17:22:49.031Z,18.30
2022-12-17T17:25:15.474Z,19.17
2022-12-17T17:27:41.926Z,18.42
2022-12-17T17:30:08.744Z,19.27
2022-12-17T17:32:35.197Z,19.88
2022-12-17T17:35:01.664Z,18.30
2022-12-17T17:37:28.060Z,19.52
2022-12-17T17:39:54.499Z,20.95
2022-12-17T17:42:20.865Z,19.35
2022-12-17T17:44:48.676Z,20.50
2022-12-17T17:47:15.029Z,19.35
2022-12-17T17:49:41.406Z,19.33
2022-12-17T17:52:09.991Z,20.50
2022-12-17T17:54:39.289Z,19.23
2022-12-17T17:57:05.752Z,18.90
2022-12-17T17:59:34.161Z,19.95
2022-12-17T18:02:02.210Z,18.95
2022-12-17T18:04:28.873Z,17.65
2022-12-17T18:09:41.707Z,18.25
2022-12-17T18:12:26.534Z,18.95
2022-12-17T18:15:13.033Z,17.50
2022-12-17T18:17:39.850Z,19.55
2022-12-17T18:20:06.596Z,18.70
2022-12-17T18:22:33.204Z,19.50
2022-12-17T18:24:59.611Z,18.42
2022-12-17T18:27:26.239Z,18.25
2022-12-17T18:29:52.748Z,18.02
2022-12-17T18:32:19.198Z,21.08
2022-12-17T18:34:45.682Z,19.13
2022-12-17T18:37:12.116Z,19.90
2022-12-17T18:39:38.613Z,19.20
2022-12-17T18:42:23.819Z,20.33
2022-12-17T18:44:50.247Z,21.08
2022-12-17T18:47:16.847Z,19.60
2022-12-17T18:49:43.364Z,19.98
2022-12-17T18:52:16.195Z,20.10
2022-12-17T18:54:43.354Z,20.08
2022-12-17T18:57:09.815Z,19.13
2022-12-17T18:59:36.234Z,20.73
2022-12-17T19:02:02.944Z,19.38
2022-12-17T19:04:29.440Z,18.50
2022-12-17T19:06:55.941Z,21.55
2022-12-17T19:09:23.941Z,17.95
2022-12-17T19:11:50.739Z,23.25
2022-12-17T19:14:17.883Z,21.42
2022-12-17T19:16:44.823Z,20.20
2022-12-17T19:19:11.772Z,20.73
2022-12-17T19:21:38.128Z,20.25
2022-12-17T19:24:06.362Z,19.85
2022-12-17T19:26:34.514Z,18.83
2022-12-17T19:29:02.247Z,19.67
2022-12-17T19:31:29.691Z,19.48
2022-12-17T19:33:57.337Z,21.33
2022-12-17T19:36:28.192Z,19.80
2022-12-17T19:39:00.775Z,19.40
2022-12-17T19:41:28.090Z,19.80
2022-12-17T19:43:59.079Z,19.00
2022-12-17T19:46:26.043Z,19.65
2022-12-17T19:48:52.964Z,19.05
2022-12-17T19:51:23.476Z,21.08
2022-12-17T19:53:50.287Z,20.10
2022-12-17T19:56:18.306Z,19.45
2022-12-17T19:58:45.800Z,18.63
2022-12-17T20:01:13.793Z,19.92
2022-12-17T20:03:41.889Z,18.05
2022-12-17T20:06:09.059Z,18.33
2022-12-17T20:08:35.809Z,19.48
2022-12-17T20:11:03.597Z,20.65
2022-12-17T20:13:30.653Z,20.48
2022-12-17T20:16:00.928Z,20.88
2022-12-17T20:18:27.295Z,20.80
2022-12-17T20:21:00.659Z,19.73
2022-12-17T20:23:27.042Z,20.87
2022-12-17T20:26:03.823Z,19.95
2022-12-17T20:28:30.209Z,18.65
2022-12-17T20:30:57.954Z,19.98
2022-12-17T20:33:24.750Z,19.40
2022-12-17T20:35:51.402Z,19.98
2022-12-17T20:38:18.126Z,20.88
2022-12-17T20:40:44.519Z,22.42
2022-12-17T20:43:10.962Z,21.30
2022-12-17T20:45:37.673Z,21.40
2022-12-17T20:48:04.206Z,19.55
2022-12-17T20:50:30.800Z,21.58
2022-12-17T20:52:58.508Z,21.13
2022-12-17T20:55:30.791Z,21.52
2022-12-17T20:57:57.555Z,21.45
2022-12-17T21:00:24.085Z,21.08
2022-12-17T21:02:50.691Z,19.88
2022-12-17T21:05:18.016Z,19.58
2022-12-17T21:07:44.947Z,19.67
2022-12-17T21:10:11.655Z,19.48
2022-12-17T21:12:56.434Z,19.33
2022-12-17T21:15:22.834Z,19.15
2022-12-17T21:17:49.194Z,18.17
2022-12-17T21:20:15.651Z,19.77
2022-12-17T21:22:42.668Z,17.90
2022-12-17T21:25:09.257Z,20.70
2022-12-17T21:27:35.656Z,18.85
2022-12-17T21:30:02.120Z,19.38
2022-12-17T21:32:35.182Z,19.08
2022-12-17T21:35:01.549Z,20.90
2022-12-17T21:37:29.750Z,19.25
2022-12-17T21:39:59.791Z,20.02
2022-12-17T21:42:45.344Z,18.77
2022-12-17T21:45:11.705Z,19.02
2022-12-17T21:47:38.392Z,20.70
2022-12-17T21:50:04.925Z,20.92
2022-12-17T21:52:31.409Z,21.50
2022-12-17T21:54:57.814Z,20.27
2022-12-17T21:57:24.207Z,20.75
2022-12-17T21:59:50.541Z,21.13
2022-12-17T22:02:18.131Z,20.23
2022-12-17T22:04:44.876Z,21.15
2022-12-17T22:07:14.146Z,22.15
2022-12-17T22:10:18.912Z,21.08
2022-12-17T22:13:01.673Z,20.58
2022-12-17T22:15:28.852Z,21.88
2022-12-17T22:17:57.715Z,20.33
2022-12-17T22:20:25.050Z,22.70
2022-12-17T22:22:51.493Z,19.50
2022-12-17T22:25:18.134Z,21.05
2022-12-17T22:27:44.649Z,19.92
2022-12-17T22:30:31.716Z,21.48
2022-12-17T22:33:02.344Z,20.05
2022-12-17T22:36:31.699Z,20.58
2022-12-17T22:41:43.061Z,20.92
2022-12-17T22:44:33.896Z,20.08
2022-12-17T22:44:44.344Z,20.10
2022-12-17T22:47:05.267Z,18.17
2022-12-17T22:49:31.713Z,19.33
2022-12-17T22:51:58.129Z,19.92
2022-12-17T22:54:24.513Z,18.85
2022-12-17T22:57:29.388Z,18.85
2022-12-17T22:59:37.629Z,20.35
2022-12-17T23:02:04.057Z,20.52
2022-12-17T23:04:30.558Z,18.95
2022-12-17T23:06:56.988Z,18.33
2022-12-17T23:09:24.039Z,19.50
2022-12-17T23:11:50.423Z,18.02
2022-12-17T23:14:17.107Z,18.05
2022-12-17T23:16:43.572Z,18.67
2022-12-17T23:19:09.957Z,17.77
2022-12-17T23:21:36.457Z,18.40
2022-12-17T23:24:03.148Z,18.75
2022-12-17T23:26:31.320Z,20.30
2022-12-17T23:28:58.495Z,18.83
2022-12-17T23:31:25.637Z,18.23
2022-12-17T23:33:52.065Z,16.45
2022-12-17T23:36:19.525Z,17.45
2022-12-17T23:38:46.459Z,16.77
2022-12-17T23:41:23.194Z,16.98
2022-12-17T23:43:49.872Z,16.30
2022-12-17T23:46:16.969Z,16.23
2022-12-17T23:48:45.733Z,16.98
2022-12-17T23:51:14.089Z,16.08
2022-12-17T23:53:41.024Z,15.90
2022-12-17T23:56:07.866Z,16.40
2022-12-17T23:58:35.039Z,16.02
